createdAt,value
2023-04-02T00:03:03.062Z,8.00
2023-04-02T00:09:56.902Z,6.97
2023-04-02T00:16:04.136Z,7.13
2023-04-02T00:22:21.047Z,5.70
2023-04-02T00:28:25.046Z,5.13
2023-04-02T00:35:01.239Z,7.27
2023-04-02T00:41:18.109Z,6.33
2023-04-02T00:48:43.252Z,6.73
2023-04-02T00:54:56.681Z,8.87
2023-04-02T01:01:05.747Z,7.47
2023-04-02T01:07:22.217Z,7.27
2023-04-02T01:13:54.735Z,6.83
2023-04-02T01:20:08.939Z,8.10
2023-04-02T01:26:48.078Z,6.90
2023-04-02T01:32:50.724Z,9.50
2023-04-02T01:39:18.892Z,9.63
2023-04-02T01:45:26.341Z,7.70
2023-04-02T01:52:03.245Z,9.53
2023-04-02T01:58:40.418Z,8.03
2023-04-02T02:05:03.466Z,7.97
2023-04-02T02:11:06.844Z,8.27
2023-04-02T02:17:25.478Z,8.20
2023-04-02T02:23:42.908Z,7.17
2023-04-02T02:29:50.486Z,6.60
2023-04-02T02:36:32.775Z,7.10
2023-04-02T02:42:58.850Z,6.83
2023-04-02T02:49:30.170Z,7.77
2023-04-02T02:55:56.671Z,7.03
2023-04-02T03:02:04.165Z,8.33
2023-04-02T03:08:19.675Z,8.67
2023-04-02T03:14:45.290Z,8.67
2023-04-02T03:21:17.785Z,8.60
2023-04-02T03:27:47.600Z,7.77
2023-04-02T03:34:23.065Z,8.23
2023-04-02T03:40:53.604Z,9.70
2023-04-02T03:47:25.210Z,8.63
2023-04-02T03:53:53.234Z,7.90
2023-04-02T04:00:31.276Z,8.97
2023-04-02T04:06:43.465Z,8.20
2023-04-02T04:12:53.302Z,8.93
2023-04-02T04:19:04.842Z,7.37
2023-04-02T04:25:35.530Z,7.20
2023-04-02T04:31:59.644Z,6.73
2023-04-02T04:38:13.457Z,5.13
2023-04-02T04:45:44.856Z,5.83
2023-04-02T04:52:18.253Z,5.03
2023-04-02T04:58:49.423Z,4.67
2023-04-02T05:05:26.520Z,4.93
2023-04-02T05:12:32.022Z,6.00
2023-04-02T05:19:01.286Z,6.17
2023-04-02T05:25:16.823Z,5.60
2023-04-02T05:31:43.613Z,5.53
2023-04-02T05:38:19.425Z,5.73
2023-04-02T05:44:42.970Z,5.10
2023-04-02T05:51:01.032Z,5.33
2023-04-02T05:57:56.611Z,5.13
2023-04-02T06:12:08.357Z,5.40
2023-04-02T06:18:29.738Z,5.20
2023-04-02T06:24:45.521Z,4.33
2023-04-02T06:31:11.291Z,4.00
2023-04-02T06:43:59.061Z,4.37
2023-04-02T06:51:18.022Z,3.97
2023-04-02T06:57:26.797Z,3.83
2023-04-02T07:03:34.665Z,4.40
2023-04-02T07:09:37.043Z,4.60
2023-04-02T07:15:55.721Z,4.53
2023-04-02T07:22:15.730Z,4.13
2023-04-02T07:28:22.399Z,3.50
2023-04-02T07:35:07.761Z,3.60
2023-04-02T07:41:22.828Z,3.90
2023-04-02T07:47:32.011Z,4.33
2023-04-02T07:53:42.117Z,3.43
2023-04-02T08:00:41.831Z,3.97
2023-04-02T08:06:48.958Z,3.10
2023-04-02T08:12:57.483Z,4.17
2023-04-02T08:19:03.939Z,2.77
2023-04-02T08:25:17.599Z,2.90
2023-04-02T08:31:51.902Z,2.87
2023-04-02T08:37:57.481Z,2.90
2023-04-02T08:44:23.075Z,2.60
2023-04-02T08:57:25.053Z,2.90
2023-04-02T09:03:52.381Z,3.50
2023-04-02T09:09:58.210Z,3.40
2023-04-02T09:16:45.924Z,3.20
2023-04-02T09:22:57.554Z,3.00
2023-04-02T09:29:28.898Z,3.50
2023-04-02T09:35:38.503Z,2.73
2023-04-02T09:41:40.994Z,3.00
2023-04-02T09:47:48.426Z,2.97
2023-04-02T09:54:16.943Z,2.80
2023-04-02T10:00:42.315Z,3.83
2023-04-02T10:06:51.976Z,3.80
2023-04-02T10:13:18.520Z,3.77
2023-04-02T10:19:29.280Z,4.17
2023-04-02T10:25:37.864Z,3.50
2023-04-02T10:32:03.348Z,3.23
2023-04-02T10:38:28.085Z,2.70
2023-04-02T10:44:52.179Z,3.80
2023-04-02T10:51:09.917Z,3.70
2023-04-02T10:57:38.233Z,3.27
2023-04-02T11:03:57.821Z,4.37
2023-04-02T11:10:03.542Z,5.30
2023-04-02T11:16:09.778Z,3.90
2023-04-02T11:22:26.278Z,3.33
2023-04-02T11:28:50.298Z,3.30
2023-04-02T11:35:06.448Z,2.77
2023-04-02T11:41:09.900Z,3.50
2023-04-02T11:47:19.376Z,4.23
2023-04-02T11:53:49.959Z,4.77
2023-04-02T12:00:07.504Z,5.60
2023-04-02T12:06:48.137Z,5.80
2023-04-02T12:12:55.979Z,5.13
2023-04-02T12:19:00.042Z,4.10
2023-04-02T12:25:09.546Z,4.57
2023-04-02T12:31:20.037Z,3.37
2023-04-02T12:37:28.511Z,3.80
2023-04-02T12:43:41.029Z,3.23
2023-04-02T12:49:45.527Z,3.63
2023-04-02T12:55:59.407Z,5.67
2023-04-02T13:02:17.536Z,4.27
2023-04-02T13:08:49.770Z,3.27
2023-04-02T13:14:57.624Z,2.90
2023-04-02T13:21:06.330Z,2.40
2023-04-02T13:27:11.535Z,2.40
2023-04-02T13:33:20.018Z,2.50
2023-04-02T13:39:24.258Z,3.07
2023-04-02T13:45:37.623Z,3.63
2023-04-02T13:51:46.512Z,3.07
2023-04-02T13:58:01.092Z,2.73
2023-04-02T14:04:08.496Z,2.67
2023-04-02T14:10:58.110Z,2.90
2023-04-02T14:17:14.635Z,2.43
2023-04-02T14:23:26.126Z,2.03
2023-04-02T14:29:35.858Z,1.60
2023-04-02T14:35:45.111Z,1.37
2023-04-02T14:41:59.609Z,1.53
2023-04-02T14:48:12.132Z,1.43
2023-04-02T14:54:44.001Z,1.40
2023-04-02T15:00:59.240Z,1.97
2023-04-02T15:07:16.718Z,2.93
2023-04-02T15:13:25.198Z,2.43
2023-04-02T15:19:27.697Z,2.80
2023-04-02T15:25:54.074Z,2.73
2023-04-02T15:32:08.719Z,3.10
2023-04-02T15:38:28.234Z,2.10
2023-04-02T15:44:41.754Z,2.30
2023-04-02T15:51:10.319Z,1.97
2023-04-02T15:57:37.946Z,2.20
2023-04-02T16:03:51.462Z,2.10
2023-04-02T16:10:38.374Z,2.67
2023-04-02T16:16:49.624Z,2.37
2023-04-02T16:23:07.839Z,2.40
2023-04-02T16:29:28.593Z,1.87
2023-04-02T16:35:56.244Z,2.10
2023-04-02T16:42:13.738Z,2.90
2023-04-02T16:48:51.303Z,5.10
2023-04-02T16:55:27.922Z,4.90
2023-04-02T17:01:30.389Z,4.67
2023-04-02T17:07:53.387Z,4.57
2023-04-02T17:14:06.510Z,4.43
2023-04-02T17:20:20.272Z,4.40
2023-04-02T17:26:27.405Z,4.37
2023-04-02T17:32:33.933Z,4.30
2023-04-02T17:39:06.537Z,3.80
2023-04-02T17:45:23.046Z,3.97
2023-04-02T17:51:35.343Z,3.40
2023-04-02T17:57:47.528Z,4.03
2023-04-02T18:04:37.431Z,4.33
2023-04-02T18:10:53.151Z,4.10
2023-04-02T18:17:12.673Z,3.37
2023-04-02T18:23:54.284Z,4.10
2023-04-02T18:30:38.165Z,3.43
2023-04-02T18:37:02.517Z,3.30
2023-04-02T18:43:42.166Z,2.60
2023-04-02T18:49:54.337Z,2.70
2023-04-02T18:56:12.249Z,2.97
2023-04-02T19:02:41.904Z,3.17
2023-04-02T19:09:08.596Z,2.60
2023-04-02T19:15:19.822Z,2.90
2023-04-02T19:21:45.376Z,3.27
2023-04-02T19:28:20.925Z,2.97
2023-04-02T19:34:44.479Z,3.57
2023-04-02T19:41:22.111Z,2.83
2023-04-02T19:47:25.601Z,3.43
2023-04-02T19:53:35.856Z,3.53
2023-04-02T19:59:38.544Z,3.43
2023-04-02T20:05:42.929Z,3.47
2023-04-02T20:11:47.536Z,4.73
2023-04-02T20:17:51.964Z,5.77
2023-04-02T20:23:56.448Z,6.70
2023-04-02T20:29:58.898Z,6.80
2023-04-02T20:36:20.657Z,7.07
2023-04-02T20:42:23.869Z,8.53
2023-04-02T20:48:29.116Z,7.37
2023-04-02T20:54:31.869Z,6.03
2023-04-02T21:00:34.342Z,4.97
2023-04-02T21:06:42.754Z,6.13
2023-04-02T21:12:45.295Z,5.87
2023-04-02T21:18:49.725Z,5.77
2023-04-02T21:24:52.178Z,5.80
2023-04-02T21:31:22.825Z,5.73
2023-04-02T21:37:25.278Z,6.67
2023-04-02T21:43:31.677Z,9.10
2023-04-02T21:49:34.254Z,10.20
2023-04-02T21:55:36.831Z,9.37
2023-04-02T22:01:43.093Z,10.03
2023-04-02T22:07:45.284Z,10.50
2023-04-02T22:13:51.033Z,10.73
2023-04-02T22:19:53.488Z,10.33
2023-04-02T22:25:59.961Z,10.63
2023-04-02T22:32:02.638Z,9.80
2023-04-02T22:38:05.871Z,9.00
2023-04-02T22:44:08.331Z,9.90
2023-04-02T22:50:11.804Z,8.03
2023-04-02T22:56:21.238Z,8.23
2023-04-02T23:02:23.778Z,9.43
2023-04-02T23:08:29.433Z,8.63
2023-04-02T23:14:31.641Z,8.63
2023-04-02T23:20:35.432Z,7.40
2023-04-02T23:26:38.636Z,7.17
2023-04-02T23:32:41.082Z,7.43
2023-04-02T23:38:43.486Z,7.87
2023-04-02T23:44:45.954Z,7.17
2023-04-02T23:50:47.962Z,7.93
2023-04-02T23:56:52.406Z,7.90
